Startpagina
METAR-TAF:

METAR-TAF

Vliegvelden :

Diest, België

Schaffen

breedte: 51-00N, lengte: 005-04E, hoogte: 30 m

Actueel weer

Dit bericht is 26 minuten geleden gemaakt, om 11:25 UTC
Wind 9 kt uit het westzuidwesten
Temperatuur 34°C
Vochtigheid 36%
Druk 1011 hPa
Zicht 10 km of meer

METAR: EBDT 221125Z AUTO 24009KT 9999 NCD 34/17 Q1011 BLU

Tijdstip: 13:51 (11:51 UTC)

Verwachting

Dit bericht is 20 uur en het 10 minuten geleden gemaakt, om 15:41 UTC
Verwachting geldig van 21 om 19 UTC tot 22 om 07 UTC
Wind 4 kt uit het zuidzuidoosten
Zicht 10 km of meer
Verspreide wolken op 23000 ft

TAF: EBDT 211541Z 2119/2207 16004KT 9999 SCT230

Waarnemingen en weersverwachtingen van meer dan 4000 vliegvelden (METAR en TAF).

De beschikbare stations zijn de gele en rode punten op de kaart.

Ga met uw muis naar het station om de naam te zien.

Klik dan om waarnemingen en weersverwachtingen te zien.

kaart wijzigen: klik op de groene knoppen met een zwart kruis om in te zoomen, op de groene knop met een streepje om uit te zoomen of op de groene pijlen voor aangrenzende kaarten.


METAR-TAF: